sensor_id;sensor_type;location;lat;lon;timestamp;P1;durP1;ratioP1;P2;durP2;ratioP2
21140;SDS011;10728;53.284;10.314;2022-12-28T00:44:32;5.67;;;1.63;;
21140;SDS011;10728;53.284;10.314;2022-12-28T00:46:57;3.47;;;1.60;;
21140;SDS011;10728;53.284;10.314;2022-12-28T00:49:29;8.30;;;1.60;;
21140;SDS011;10728;53.284;10.314;2022-12-28T00:55:31;6.27;;;1.93;;
21140;SDS011;10728;53.284;10.314;2022-12-28T00:58:56;3.60;;;1.40;;
21140;SDS011;10728;53.284;10.314;2022-12-28T01:01:59;7.67;;;1.90;;
21140;SDS011;10728;53.284;10.314;2022-12-28T01:04:25;5.23;;;1.20;;
21140;SDS011;10728;53.284;10.314;2022-12-28T01:07:05;5.17;;;1.47;;
21140;SDS011;10728;53.284;10.314;2022-12-28T01:09:35;4.13;;;1.77;;
21140;SDS011;10728;53.284;10.314;2022-12-28T01:12:27;3.97;;;1.40;;
21140;SDS011;10728;53.284;10.314;2022-12-28T01:15:58;5.60;;;1.33;;
21140;SDS011;10728;53.284;10.314;2022-12-28T01:18:43;3.77;;;1.67;;
21140;SDS011;10728;53.284;10.314;2022-12-28T01:22:21;3.47;;;1.23;;
21140;SDS011;10728;53.284;10.314;2022-12-28T01:25:07;2.03;;;1.37;;
21140;SDS011;10728;53.284;10.314;2022-12-28T01:27:53;7.33;;;1.60;;
21140;SDS011;10728;53.284;10.314;2022-12-28T01:30:27;4.63;;;1.20;;
21140;SDS011;10728;53.284;10.314;2022-12-28T01:42:04;3.97;;;1.00;;
21140;SDS011;10728;53.284;10.314;2022-12-28T01:47:04;5.57;;;1.30;;
21140;SDS011;10728;53.284;10.314;2022-12-28T01:54:59;4.53;;;0.90;;
21140;SDS011;10728;53.284;10.314;2022-12-28T01:57:41;5.70;;;1.40;;
21140;SDS011;10728;53.284;10.314;2022-12-28T02:00:57;3.33;;;1.17;;
21140;SDS011;10728;53.284;10.314;2022-12-28T02:03:25;4.10;;;1.40;;
21140;SDS011;10728;53.284;10.314;2022-12-28T02:05:53;5.50;;;1.60;;
21140;SDS011;10728;53.284;10.314;2022-12-28T02:11:03;4.90;;;1.47;;
21140;SDS011;10728;53.284;10.314;2022-12-28T02:13:29;6.23;;;1.60;;
21140;SDS011;10728;53.284;10.314;2022-12-28T02:16:11;2.43;;;1.20;;
21140;SDS011;10728;53.284;10.314;2022-12-28T02:18:41;6.27;;;1.90;;
21140;SDS011;10728;53.284;10.314;2022-12-28T02:23:39;6.13;;;1.33;;
21140;SDS011;10728;53.284;10.314;2022-12-28T02:26:34;7.37;;;1.30;;
21140;SDS011;10728;53.284;10.314;2022-12-28T02:29:25;5.63;;;1.60;;
21140;SDS011;10728;53.284;10.314;2022-12-28T02:34:45;6.40;;;1.80;;
21140;SDS011;10728;53.284;10.314;2022-12-28T02:37:31;4.07;;;1.33;;
21140;SDS011;10728;53.284;10.314;2022-12-28T02:45:33;5.50;;;1.50;;
21140;SDS011;10728;53.284;10.314;2022-12-28T02:48:36;6.33;;;1.60;;
21140;SDS011;10728;53.284;10.314;2022-12-28T03:06:09;3.83;;;1.13;;
21140;SDS011;10728;53.284;10.314;2022-12-28T03:11:38;5.63;;;1.20;;
21140;SDS011;10728;53.284;10.314;2022-12-28T03:14:15;2.50;;;1.23;;
21140;SDS011;10728;53.284;10.314;2022-12-28T03:25:18;6.27;;;1.77;;
21140;SDS011;10728;53.284;10.314;2022-12-28T03:28:08;7.83;;;1.50;;
21140;SDS011;10728;53.284;10.314;2022-12-28T03:33:46;7.13;;;1.40;;
21140;SDS011;10728;53.284;10.314;2022-12-28T03:39:03;3.50;;;1.53;;
21140;SDS011;10728;53.284;10.314;2022-12-28T03:41:56;4.93;;;1.30;;
21140;SDS011;10728;53.284;10.314;2022-12-28T03:44:46;5.40;;;1.30;;
21140;SDS011;10728;53.284;10.314;2022-12-28T03:47:16;2.27;;;1.43;;
21140;SDS011;10728;53.284;10.314;2022-12-28T03:49:50;7.90;;;1.70;;
21140;SDS011;10728;53.284;10.314;2022-12-28T03:52:22;9.23;;;1.77;;
21140;SDS011;10728;53.284;10.314;2022-12-28T03:54:48;6.77;;;1.63;;
21140;SDS011;10728;53.284;10.314;2022-12-28T03:57:14;3.47;;;1.50;;
21140;SDS011;10728;53.284;10.314;2022-12-28T03:59:44;4.50;;;1.50;;
21140;SDS011;10728;53.284;10.314;2022-12-28T04:02:09;5.73;;;1.80;;
21140;SDS011;10728;53.284;10.314;2022-12-28T04:04:35;4.20;;;1.47;;
21140;SDS011;10728;53.284;10.314;2022-12-28T04:07:00;5.47;;;1.33;;
21140;SDS011;10728;53.284;10.314;2022-12-28T04:09:26;6.07;;;1.53;;
21140;SDS011;10728;53.284;10.314;2022-12-28T04:11:54;3.30;;;1.40;;
21140;SDS011;10728;53.284;10.314;2022-12-28T04:14:39;6.57;;;1.80;;
21140;SDS011;10728;53.284;10.314;2022-12-28T04:17:24;4.10;;;1.50;;
21140;SDS011;10728;53.284;10.314;2022-12-28T04:19:50;4.80;;;1.50;;
21140;SDS011;10728;53.284;10.314;2022-12-28T04:22:16;6.60;;;1.50;;
21140;SDS011;10728;53.284;10.314;2022-12-28T04:24:41;5.30;;;1.53;;
21140;SDS011;10728;53.284;10.314;2022-12-28T04:27:07;8.03;;;1.80;;
21140;SDS011;10728;53.284;10.314;2022-12-28T04:29:32;6.70;;;1.80;;
21140;SDS011;10728;53.284;10.314;2022-12-28T04:32:05;6.70;;;2.00;;
21140;SDS011;10728;53.284;10.314;2022-12-28T04:34:31;9.93;;;1.80;;
21140;SDS011;10728;53.284;10.314;2022-12-28T04:37:08;9.33;;;2.00;;
21140;SDS011;10728;53.284;10.314;2022-12-28T04:39:34;3.53;;;1.77;;
21140;SDS011;10728;53.284;10.314;2022-12-28T04:41:59;4.67;;;1.73;;
21140;SDS011;10728;53.284;10.314;2022-12-28T04:44:25;6.40;;;1.87;;
21140;SDS011;10728;53.284;10.314;2022-12-28T04:46:50;6.70;;;2.20;;
21140;SDS011;10728;53.284;10.314;2022-12-28T04:49:16;8.20;;;1.60;;
21140;SDS011;10728;53.284;10.314;2022-12-28T04:51:42;7.23;;;1.67;;
21140;SDS011;10728;53.284;10.314;2022-12-28T04:54:10;4.10;;;1.57;;
21140;SDS011;10728;53.284;10.314;2022-12-28T04:56:37;4.47;;;1.90;;
21140;SDS011;10728;53.284;10.314;2022-12-28T04:59:03;9.33;;;2.03;;
21140;SDS011;10728;53.284;10.314;2022-12-28T05:01:29;5.57;;;2.23;;
21140;SDS011;10728;53.284;10.314;2022-12-28T05:03:57;5.63;;;1.80;;
21140;SDS011;10728;53.284;10.314;2022-12-28T05:06:23;7.50;;;1.63;;
21140;SDS011;10728;53.284;10.314;2022-12-28T05:08:49;7.43;;;1.70;;
21140;SDS011;10728;53.284;10.314;2022-12-28T05:11:16;8.93;;;2.93;;
21140;SDS011;10728;53.284;10.314;2022-12-28T05:13:43;5.03;;;1.77;;
21140;SDS011;10728;53.284;10.314;2022-12-28T05:16:10;4.33;;;2.17;;
21140;SDS011;10728;53.284;10.314;2022-12-28T05:18:37;3.30;;;1.67;;
21140;SDS011;10728;53.284;10.314;2022-12-28T05:21:04;8.77;;;2.20;;
21140;SDS011;10728;53.284;10.314;2022-12-28T05:23:31;11.33;;;2.00;;
21140;SDS011;10728;53.284;10.314;2022-12-28T05:25:58;4.50;;;2.23;;
21140;SDS011;10728;53.284;10.314;2022-12-28T05:28:24;5.20;;;2.23;;
21140;SDS011;10728;53.284;10.314;2022-12-28T05:30:50;12.03;;;2.37;;
21140;SDS011;10728;53.284;10.314;2022-12-28T05:33:16;5.33;;;1.87;;
21140;SDS011;10728;53.284;10.314;2022-12-28T05:35:42;6.57;;;1.97;;
21140;SDS011;10728;53.284;10.314;2022-12-28T05:38:07;4.47;;;1.87;;
21140;SDS011;10728;53.284;10.314;2022-12-28T05:40:53;7.53;;;2.27;;
21140;SDS011;10728;53.284;10.314;2022-12-28T05:43:22;8.03;;;2.00;;
21140;SDS011;10728;53.284;10.314;2022-12-28T05:46:20;7.13;;;2.20;;
21140;SDS011;10728;53.284;10.314;2022-12-28T05:48:51;3.70;;;2.00;;
21140;SDS011;10728;53.284;10.314;2022-12-28T05:51:20;8.03;;;2.40;;
21140;SDS011;10728;53.284;10.314;2022-12-28T05:53:48;7.97;;;2.50;;
21140;SDS011;10728;53.284;10.314;2022-12-28T05:56:17;3.67;;;2.37;;
21140;SDS011;10728;53.284;10.314;2022-12-28T06:01:38;3.50;;;1.93;;
21140;SDS011;10728;53.284;10.314;2022-12-28T06:10:07;5.50;;;2.13;;
21140;SDS011;10728;53.284;10.314;2022-12-28T06:12:33;6.03;;;2.47;;
21140;SDS011;10728;53.284;10.314;2022-12-28T06:14:59;6.23;;;2.20;;
21140;SDS011;10728;53.284;10.314;2022-12-28T06:17:24;4.67;;;2.20;;
21140;SDS011;10728;53.284;10.314;2022-12-28T06:19:50;9.37;;;2.07;;
21140;SDS011;10728;53.284;10.314;2022-12-28T06:22:16;3.80;;;2.30;;
21140;SDS011;10728;53.284;10.314;2022-12-28T06:24:42;4.87;;;2.33;;
21140;SDS011;10728;53.284;10.314;2022-12-28T06:27:07;4.13;;;2.10;;
21140;SDS011;10728;53.284;10.314;2022-12-28T06:29:33;5.03;;;2.20;;
21140;SDS011;10728;53.284;10.314;2022-12-28T06:31:58;4.07;;;1.90;;
21140;SDS011;10728;53.284;10.314;2022-12-28T06:45:37;7.83;;;2.30;;
21140;SDS011;10728;53.284;10.314;2022-12-28T06:48:04;3.97;;;2.30;;
21140;SDS011;10728;53.284;10.314;2022-12-28T06:50:29;4.50;;;2.00;;
21140;SDS011;10728;53.284;10.314;2022-12-28T06:52:55;3.20;;;2.33;;
21140;SDS011;10728;53.284;10.314;2022-12-28T06:55:21;3.63;;;2.30;;
21140;SDS011;10728;53.284;10.314;2022-12-28T06:57:46;7.67;;;2.27;;
21140;SDS011;10728;53.284;10.314;2022-12-28T07:00:12;2.93;;;2.17;;
21140;SDS011;10728;53.284;10.314;2022-12-28T07:02:38;3.30;;;1.80;;
21140;SDS011;10728;53.284;10.314;2022-12-28T07:05:04;4.30;;;1.90;;
21140;SDS011;10728;53.284;10.314;2022-12-28T07:07:29;4.60;;;2.17;;
21140;SDS011;10728;53.284;10.314;2022-12-28T07:09:55;4.30;;;1.90;;
21140;SDS011;10728;53.284;10.314;2022-12-28T07:12:21;2.37;;;1.77;;
21140;SDS011;10728;53.284;10.314;2022-12-28T07:14:46;2.37;;;1.73;;
21140;SDS011;10728;53.284;10.314;2022-12-28T07:17:12;2.77;;;1.47;;
21140;SDS011;10728;53.284;10.314;2022-12-28T07:19:37;4.10;;;1.60;;
21140;SDS011;10728;53.284;10.314;2022-12-28T07:22:03;5.93;;;1.77;;
21140;SDS011;10728;53.284;10.314;2022-12-28T07:24:28;3.13;;;1.63;;
21140;SDS011;10728;53.284;10.314;2022-12-28T07:26:54;2.43;;;1.67;;
21140;SDS011;10728;53.284;10.314;2022-12-28T07:29:19;3.73;;;1.87;;
21140;SDS011;10728;53.284;10.314;2022-12-28T07:31:45;2.40;;;1.63;;
21140;SDS011;10728;53.284;10.314;2022-12-28T07:34:10;2.67;;;1.70;;
21140;SDS011;10728;53.284;10.314;2022-12-28T07:36:38;3.07;;;1.23;;
21140;SDS011;10728;53.284;10.314;2022-12-28T07:39:03;2.93;;;1.57;;
21140;SDS011;10728;53.284;10.314;2022-12-28T07:41:30;2.67;;;1.50;;
21140;SDS011;10728;53.284;10.314;2022-12-28T07:43:58;2.77;;;1.67;;
21140;SDS011;10728;53.284;10.314;2022-12-28T07:46:25;3.40;;;1.70;;
21140;SDS011;10728;53.284;10.314;2022-12-28T07:49:10;2.33;;;1.60;;
21140;SDS011;10728;53.284;10.314;2022-12-28T07:51:36;3.20;;;1.60;;
21140;SDS011;10728;53.284;10.314;2022-12-28T07:54:02;3.57;;;1.93;;
21140;SDS011;10728;53.284;10.314;2022-12-28T07:56:39;2.50;;;1.40;;
21140;SDS011;10728;53.284;10.314;2022-12-28T07:59:05;3.83;;;1.70;;
21140;SDS011;10728;53.284;10.314;2022-12-28T08:01:31;3.17;;;1.50;;
21140;SDS011;10728;53.284;10.314;2022-12-28T08:04:03;2.33;;;1.60;;
21140;SDS011;10728;53.284;10.314;2022-12-28T08:06:32;3.23;;;1.53;;
21140;SDS011;10728;53.284;10.314;2022-12-28T08:08:59;2.03;;;1.40;;
21140;SDS011;10728;53.284;10.314;2022-12-28T08:11:26;2.03;;;1.33;;
21140;SDS011;10728;53.284;10.314;2022-12-28T08:14:11;1.70;;;1.40;;
21140;SDS011;10728;53.284;10.314;2022-12-28T08:16:37;3.93;;;1.37;;
21140;SDS011;10728;53.284;10.314;2022-12-28T08:19:04;1.50;;;1.20;;
21140;SDS011;10728;53.284;10.314;2022-12-28T08:21:31;1.70;;;1.20;;
21140;SDS011;10728;53.284;10.314;2022-12-28T08:23:58;2.67;;;1.60;;
21140;SDS011;10728;53.284;10.314;2022-12-28T08:26:28;1.90;;;1.50;;
21140;SDS011;10728;53.284;10.314;2022-12-28T08:29:11;1.83;;;1.30;;
21140;SDS011;10728;53.284;10.314;2022-12-28T08:31:39;1.43;;;1.20;;
21140;SDS011;10728;53.284;10.314;2022-12-28T08:34:16;1.30;;;1.20;;
21140;SDS011;10728;53.284;10.314;2022-12-28T08:36:57;2.17;;;0.93;;
21140;SDS011;10728;53.284;10.314;2022-12-28T08:39:23;1.47;;;1.00;;
21140;SDS011;10728;53.284;10.314;2022-12-28T08:41:48;1.60;;;1.13;;
21140;SDS011;10728;53.284;10.314;2022-12-28T08:44:14;1.13;;;1.03;;
21140;SDS011;10728;53.284;10.314;2022-12-28T08:46:39;2.07;;;1.20;;
21140;SDS011;10728;53.284;10.314;2022-12-28T08:49:08;4.53;;;2.63;;
21140;SDS011;10728;53.284;10.314;2022-12-28T08:57:04;3.63;;;2.60;;
21140;SDS011;10728;53.284;10.314;2022-12-28T08:59:50;1.90;;;1.73;;
21140;SDS011;10728;53.284;10.314;2022-12-28T09:02:22;1.80;;;1.50;;
21140;SDS011;10728;53.284;10.314;2022-12-28T09:04:48;1.93;;;1.73;;
21140;SDS011;10728;53.284;10.314;2022-12-28T09:18:33;3.43;;;2.37;;
21140;SDS011;10728;53.284;10.314;2022-12-28T09:22:02;2.23;;;2.00;;
21140;SDS011;10728;53.284;10.314;2022-12-28T09:24:27;4.37;;;2.53;;
21140;SDS011;10728;53.284;10.314;2022-12-28T09:26:53;2.93;;;2.07;;
21140;SDS011;10728;53.284;10.314;2022-12-28T09:29:38;2.90;;;2.40;;
21140;SDS011;10728;53.284;10.314;2022-12-28T17:34:02;4.07;;;2.83;;
21140;SDS011;10728;53.284;10.314;2022-12-28T17:49:03;4.63;;;2.97;;
21140;SDS011;10728;53.284;10.314;2022-12-28T17:54:13;3.90;;;3.17;;
21140;SDS011;10728;53.284;10.314;2022-12-28T17:57:05;2.70;;;2.00;;
21140;SDS011;10728;53.284;10.314;2022-12-28T19:28:09;4.40;;;1.70;;
21140;SDS011;10728;53.284;10.314;2022-12-28T21:13:39;3.43;;;1.90;;
21140;SDS011;10728;53.284;10.314;2022-12-28T21:16:44;2.13;;;1.77;;
21140;SDS011;10728;53.284;10.314;2022-12-28T21:19:10;4.13;;;2.07;;
21140;SDS011;10728;53.284;10.314;2022-12-28T21:21:35;6.10;;;2.27;;
21140;SDS011;10728;53.284;10.314;2022-12-28T21:24:07;7.83;;;2.23;;
21140;SDS011;10728;53.284;10.314;2022-12-28T22:14:01;9.07;;;3.67;;
21140;SDS011;10728;53.284;10.314;2022-12-28T22:17:00;10.03;;;5.00;;
